Time;durP1;ratioP1;P1;durP2;ratioP2;P2;SDS_P1;SDS_P2;PMS_P1;PMS_P2;Temp;Humidity;BMP_temperature;BMP_pressure;BME280_temperature;BME280_humidity;BME280_pressure;Samples;Min_cycle;Max_cycle;Signal;HPM_P1;HPM_P2
2020/12/27 00:00:22;;;;;;;3.92;3.60;;;;;;;3.95;90.46;98407.03;5105293;28;20035;-70
2020/12/27 00:02:47;;;;;;;0.20;0.20;;;;;;;3.99;90.46;98410.41;5105361;28;20459;-71
2020/12/27 00:05:13;;;;;;;0.30;0.30;;;;;;;3.99;90.45;98411.25;5104937;28;20031;-69
2020/12/27 00:07:38;;;;;;;0.30;0.30;;;;;;;3.92;90.52;98366.00;5103716;28;20085;-72
2020/12/27 00:10:05;;;;;;;0.30;0.30;;;;;;;4.05;90.39;98382.94;5105141;28;20031;-71
2020/12/27 00:12:31;;;;;;;0.20;0.20;;;;;;;4.04;90.28;98364.97;5104996;28;20105;-69
2020/12/27 00:14:57;;;;;;;0.30;0.30;;;;;;;4.05;90.46;98384.63;5105102;28;20418;-71
2020/12/27 00:17:22;;;;;;;0.30;0.30;;;;;;;4.03;90.41;98371.81;5104852;28;20114;-71
2020/12/27 00:19:47;;;;;;;29.27;8.38;;;;;;;4.04;90.48;98381.22;5104897;28;20488;-70
2020/12/27 00:22:13;;;;;;;12.43;5.35;;;;;;;4.00;90.50;98371.00;5104418;28;20036;-70
2020/12/27 00:24:38;;;;;;;21.33;9.63;;;;;;;3.95;90.68;98369.38;5104685;28;20503;-71
2020/12/27 00:27:04;;;;;;;24.35;9.07;;;;;;;3.99;90.65;98343.66;5104554;28;20052;-70
2020/12/27 00:29:29;;;;;;;19.27;9.50;;;;;;;4.05;90.67;98361.53;5104470;28;20069;-70
2020/12/27 00:31:56;;;;;;;26.58;8.85;;;;;;;4.03;90.68;98353.84;5104434;28;20119;-70
2020/12/27 00:34:23;;;;;;;26.20;8.27;;;;;;;3.97;91.04;98330.84;5104422;28;20092;-69
2020/12/27 00:36:49;;;;;;;20.33;8.23;;;;;;;4.12;90.58;98321.19;5104056;28;20043;-71
2020/12/27 00:39:14;;;;;;;21.80;9.75;;;;;;;4.06;90.80;98338.38;5104482;28;20355;-69
2020/12/27 00:41:40;;;;;;;17.48;8.43;;;;;;;4.12;90.48;98336.59;5104383;28;20028;-70
2020/12/27 00:44:05;;;;;;;12.27;6.13;;;;;;;4.12;90.69;98314.31;5104401;28;20097;-71
2020/12/27 00:46:31;;;;;;;30.38;11.68;;;;;;;4.09;90.70;98309.22;5104239;28;20020;-70
2020/12/27 00:48:57;;;;;;;25.45;7.90;;;;;;;4.12;90.84;98304.06;5104296;28;20035;-70
2020/12/27 00:51:24;;;;;;;9.10;4.70;;;;;;;4.13;90.73;98305.75;5103971;28;20016;-69
2020/12/27 00:53:49;;;;;;;15.02;6.20;;;;;;;4.20;90.54;98296.25;5103972;28;20024;-69
2020/12/27 00:56:15;;;;;;;19.00;6.60;;;;;;;4.23;90.25;98280.78;5103936;28;20028;-69
2020/12/27 00:58:40;;;;;;;26.42;9.48;;;;;;;4.22;90.30;98282.50;5104183;28;20020;-71
2020/12/27 01:01:07;;;;;;;19.85;6.57;;;;;;;4.27;89.91;98277.28;5102590;28;20032;-70
2020/12/27 01:03:33;;;;;;;13.63;5.53;;;;;;;4.18;90.37;98283.44;5103910;28;20020;-70
2020/12/27 01:05:58;;;;;;;16.88;6.63;;;;;;;4.13;90.69;98276.66;5103198;28;20048;-69
2020/12/27 01:08:24;;;;;;;16.33;7.70;;;;;;;4.14;90.85;98271.50;5102173;28;20097;-70
2020/12/27 01:10:49;;;;;;;26.48;8.45;;;;;;;4.13;90.87;98264.69;5103600;28;20020;-69
2020/12/27 01:13:15;;;;;;;28.58;9.60;;;;;;;4.21;90.57;98256.84;5103755;28;20476;-69
2020/12/27 01:15:40;;;;;;;4.85;2.05;;;;;;;4.28;90.29;98252.44;5103543;28;20025;-70
2020/12/27 01:18:06;;;;;;;0.22;0.22;;;;;;;4.24;90.41;98255.94;5103731;28;20101;-69
2020/12/27 01:20:32;;;;;;;0.22;0.22;;;;;;;4.17;90.61;98250.91;5101913;28;20421;-69
2020/12/27 01:22:58;;;;;;;19.58;5.72;;;;;;;4.17;90.73;98245.75;5103501;28;20016;-70
2020/12/27 01:25:23;;;;;;;20.50;6.72;;;;;;;4.15;90.64;98223.56;5103458;28;20112;-71
2020/12/27 01:27:48;;;;;;;8.68;4.10;;;;;;;4.26;90.48;98229.34;5103520;28;20024;-69
2020/12/27 01:30:14;;;;;;;11.05;5.03;;;;;;;4.25;90.31;98222.50;5103325;28;20100;-69
2020/12/27 01:32:41;;;;;;;20.98;5.90;;;;;;;4.23;90.45;98226.84;5103401;28;20020;-69
2020/12/27 01:35:06;;;;;;;15.60;5.03;;;;;;;4.14;90.54;98211.59;5102978;28;20395;-68
2020/12/27 01:37:32;;;;;;;30.08;10.68;;;;;;;4.23;90.51;98208.88;5103052;28;20084;-71
2020/12/27 01:39:57;;;;;;;20.13;7.95;;;;;;;4.25;90.60;98198.56;5102669;28;20020;-68
2020/12/27 01:42:22;;;;;;;24.83;9.38;;;;;;;4.26;90.52;98210.53;5102435;28;20031;-70
2020/12/27 01:44:48;;;;;;;20.90;6.60;;;;;;;4.21;90.60;98203.75;5102307;28;20017;-70
2020/12/27 01:47:19;;;;;;;36.58;11.43;;;;;;;4.19;90.53;98197.78;5102636;28;20024;-69
2020/12/27 01:49:45;;;;;;;15.63;7.63;;;;;;;4.22;90.52;98182.31;5103303;28;20083;-70
2020/12/27 01:52:11;;;;;;;22.42;7.32;;;;;;;4.16;90.91;98187.56;5102903;28;20035;-69
2020/12/27 01:54:37;;;;;;;30.52;10.25;;;;;;;4.20;90.81;98176.34;5103140;28;20024;-70
2020/12/27 01:57:11;;;;;;;15.88;6.32;;;;;;;4.17;90.42;98168.72;5103396;28;20028;-70
2020/12/27 01:59:36;;;;;;;0.30;0.30;;;;;;;4.31;90.34;98163.31;5103051;28;20033;-70
2020/12/27 02:02:04;;;;;;;0.30;0.30;;;;;;;4.25;90.38;98176.28;5102996;28;20533;-69
2020/12/27 02:04:31;;;;;;;0.20;0.20;;;;;;;4.21;90.70;98165.22;5103074;28;20035;-69
2020/12/27 02:06:57;;;;;;;0.30;0.30;;;;;;;4.29;90.38;98151.38;5106400;28;20028;-70
2020/12/27 02:09:22;;;;;;;0.20;0.20;;;;;;;4.19;90.44;98132.72;5107039;28;20096;-69
2020/12/27 02:12:01;;;;;;;0.40;0.40;;;;;;;4.22;90.57;98151.50;5106802;28;20050;-69
2020/12/27 02:14:26;;;;;;;0.20;0.20;;;;;;;4.19;90.75;98141.28;5106830;28;20031;-69
2020/12/27 02:16:51;;;;;;;0.30;0.30;;;;;;;4.26;90.38;98120.63;5106804;28;20020;-69
2020/12/27 02:19:17;;;;;;;0.20;0.20;;;;;;;4.28;90.36;98118.88;5106681;28;20027;-69
2020/12/27 02:21:42;;;;;;;0.28;0.28;;;;;;;4.27;90.27;98109.47;5106328;28;20020;-69
2020/12/27 02:24:08;;;;;;;0.28;0.28;;;;;;;4.26;90.26;98110.34;5106559;28;20020;-70
2020/12/27 02:26:33;;;;;;;0.22;0.22;;;;;;;4.19;90.72;98100.19;5105316;28;20027;-70
2020/12/27 02:28:58;;;;;;;0.30;0.30;;;;;;;4.24;90.25;98073.56;5106705;28;20024;-70
2020/12/27 02:31:26;;;;;;;0.30;0.30;;;;;;;4.22;90.28;98109.56;5106733;28;20541;-70
2020/12/27 02:33:52;;;;;;;0.30;0.30;;;;;;;4.18;90.60;98083.09;5107051;28;20020;-69
2020/12/27 02:36:18;;;;;;;40.45;14.27;;;;;;;4.19;90.36;98089.91;5105842;28;20084;-69
2020/12/27 02:38:43;;;;;;;39.05;12.38;;;;;;;4.09;90.71;98089.25;5106251;28;20024;-69
2020/12/27 02:41:17;;;;;;;38.75;12.68;;;;;;;4.11;90.78;98073.81;5106800;28;20042;-68
2020/12/27 02:43:42;;;;;;;25.65;10.93;;;;;;;4.18;90.23;98074.53;5106944;28;20020;-68
2020/12/27 02:46:23;;;;;;;0.20;0.20;;;;;;;4.19;90.27;98069.38;5106742;28;20098;-69
2020/12/27 02:48:49;;;;;;;0.30;0.30;;;;;;;4.09;90.49;98063.56;5106734;28;20024;-69
2020/12/27 02:51:15;;;;;;;0.30;0.30;;;;;;;4.08;90.59;98045.63;5105987;28;20104;-69
2020/12/27 02:53:41;;;;;;;0.20;0.20;;;;;;;4.06;90.61;98047.38;5106709;28;20020;-69
2020/12/27 02:56:06;;;;;;;0.30;0.30;;;;;;;4.03;90.59;98055.13;5106274;28;20468;-69
2020/12/27 02:58:32;;;;;;;24.88;9.45;;;;;;;4.07;90.58;98038.81;5106175;28;20065;-69
2020/12/27 03:00:59;;;;;;;0.25;0.25;;;;;;;4.05;90.54;98053.41;5104714;28;20058;-67
2020/12/27 03:03:25;;;;;;;9.90;4.40;;;;;;;4.24;89.67;98020.47;5106243;28;20755;-68
2020/12/27 03:05:50;;;;;;;29.77;11.48;;;;;;;4.07;90.28;98039.63;5105545;28;20862;-69
2020/12/27 03:08:15;;;;;;;9.27;5.13;;;;;;;4.01;90.33;98044.91;5106247;28;20063;-70
2020/12/27 03:10:41;;;;;;;10.73;5.55;;;;;;;3.97;90.44;98023.59;5105473;28;20027;-69
2020/12/27 03:13:06;;;;;;;17.60;7.30;;;;;;;4.00;90.03;98021.81;5106117;28;20524;-70
2020/12/27 03:15:32;;;;;;;26.00;9.05;;;;;;;3.94;90.53;98018.53;5104245;28;20024;-69
2020/12/27 03:17:57;;;;;;;0.22;0.22;;;;;;;4.01;90.25;98005.56;5105854;28;20050;-70
2020/12/27 03:20:22;;;;;;;0.30;0.30;;;;;;;4.02;90.34;98002.97;5104146;28;20100;-70
2020/12/27 03:22:48;;;;;;;2.00;1.90;;;;;;;3.93;90.29;98006.53;5105682;28;20008;-70
2020/12/27 03:25:13;;;;;;;0.40;0.40;;;;;;;3.96;89.91;98001.34;5105813;28;20054;-69
2020/12/27 03:27:38;;;;;;;0.20;0.20;;;;;;;3.92;90.14;98007.44;5105652;28;20024;-69
2020/12/27 03:30:05;;;;;;;0.20;0.20;;;;;;;3.97;90.25;97982.53;5105531;28;20024;-68
2020/12/27 03:32:31;;;;;;;0.30;0.30;;;;;;;3.94;90.50;97972.31;5105455;28;20015;-70
2020/12/27 03:34:56;;;;;;;0.20;0.20;;;;;;;3.98;90.36;97973.06;5105374;28;20054;-70
2020/12/27 03:37:21;;;;;;;0.30;0.30;;;;;;;4.03;90.21;97972.97;5105180;28;20031;-69
2020/12/27 03:39:47;;;;;;;0.28;0.28;;;;;;;3.98;90.22;97973.06;5105436;28;20035;-70
2020/12/27 03:42:12;;;;;;;0.30;0.30;;;;;;;4.05;90.07;97950.69;5104945;28;20024;-70
2020/12/27 03:44:37;;;;;;;0.82;0.82;;;;;;;3.97;90.26;97985.09;5104139;28;20028;-71
2020/12/27 03:47:03;;;;;;;0.30;0.30;;;;;;;3.99;90.05;97959.38;5105388;28;20079;-70
2020/12/27 03:49:28;;;;;;;0.30;0.30;;;;;;;3.94;90.13;97944.06;5105161;28;20097;-70
2020/12/27 03:51:53;;;;;;;0.20;0.20;;;;;;;3.91;90.38;97936.44;5104857;28;20053;-70
2020/12/27 03:54:19;;;;;;;0.30;0.30;;;;;;;3.88;90.58;97951.06;5105159;28;20055;-70
2020/12/27 03:56:44;;;;;;;0.40;0.40;;;;;;;3.96;90.26;97950.00;5104885;28;20028;-70
2020/12/27 03:59:09;;;;;;;0.30;0.30;;;;;;;3.99;90.22;97949.09;5104962;28;20043;-69
2020/12/27 04:01:35;;;;;;;0.20;0.20;;;;;;;3.94;90.26;97933.81;5104384;28;20019;-70
2020/12/27 04:04:00;;;;;;;29.83;10.75;;;;;;;3.98;90.29;97937.13;5104628;28;20024;-71
2020/12/27 04:06:25;;;;;;;10.07;5.97;;;;;;;4.13;89.79;97912.84;5104238;28;20535;-71
2020/12/27 04:08:51;;;;;;;18.85;7.78;;;;;;;3.99;90.15;97909.75;5104818;28;20039;-73
2020/12/27 04:11:16;;;;;;;23.30;8.90;;;;;;;3.97;90.19;97915.75;5103108;28;20109;-71
2020/12/27 04:13:41;;;;;;;18.05;8.00;;;;;;;3.94;90.34;97923.53;5105015;28;20020;-70
2020/12/27 04:16:08;;;;;;;12.18;5.07;;;;;;;3.97;90.30;97892.66;5104672;28;20063;-70
2020/12/27 04:18:33;;;;;;;9.73;4.80;;;;;;;3.99;90.20;97910.59;5104616;28;20051;-71
2020/12/27 04:20:58;;;;;;;15.82;6.55;;;;;;;4.03;90.05;97895.94;5104304;28;20047;-71
2020/12/27 04:23:24;;;;;;;23.77;8.98;;;;;;;4.12;89.85;97882.06;5104516;28;20537;-69
2020/12/27 04:25:49;;;;;;;13.00;4.68;;;;;;;4.15;89.29;97885.44;5104340;28;20020;-70
2020/12/27 04:28:15;;;;;;;19.27;9.15;;;;;;;4.04;89.85;97877.13;5103666;28;20067;-70
2020/12/27 04:30:40;;;;;;;33.03;12.38;;;;;;;3.93;90.44;97878.19;5104201;28;20042;-70
2020/12/27 04:33:05;;;;;;;13.95;6.78;;;;;;;4.05;90.20;97869.38;5104565;28;20039;-70
2020/12/27 04:35:31;;;;;;;20.40;8.70;;;;;;;4.06;89.77;97876.19;5103964;28;20016;-70
2020/12/27 04:37:56;;;;;;;36.40;12.02;;;;;;;4.07;89.98;97861.63;5104222;28;20050;-70
2020/12/27 04:40:21;;;;;;;26.73;10.02;;;;;;;3.96;90.28;97867.84;5104210;28;20024;-70
2020/12/27 04:42:51;;;;;;;18.02;7.53;;;;;;;3.99;90.16;97850.69;5103951;28;20047;-72
2020/12/27 04:45:16;;;;;;;17.10;6.55;;;;;;;3.99;90.35;97864.38;5104190;28;20028;-70
2020/12/27 04:47:42;;;;;;;0.20;0.20;;;;;;;3.99;90.26;97866.09;5104149;28;20026;-71
2020/12/27 04:50:08;;;;;;;0.20;0.20;;;;;;;4.01;90.09;97846.38;5103823;28;20578;-72
2020/12/27 04:52:34;;;;;;;0.30;0.30;;;;;;;4.01;90.11;97846.38;5103888;28;20024;-70
2020/12/27 04:55:00;;;;;;;0.20;0.20;;;;;;;3.95;90.41;97844.78;5104085;28;20020;-70
2020/12/27 04:57:27;;;;;;;0.20;0.20;;;;;;;3.94;90.47;97849.09;5103924;28;20044;-69
2020/12/27 04:59:54;;;;;;;0.30;0.30;;;;;;;4.00;90.44;97831.84;5103815;28;20044;-69
2020/12/27 05:02:20;;;;;;;4.35;2.10;;;;;;;4.20;89.84;97801.38;5103889;28;20027;-69
2020/12/27 05:04:46;;;;;;;0.30;0.30;;;;;;;4.10;89.71;97805.06;5103890;28;20024;-69
2020/12/27 05:07:21;;;;;;;0.32;0.32;;;;;;;4.00;90.24;97816.44;5103162;28;20036;-70
2020/12/27 05:09:50;;;;;;;0.20;0.20;;;;;;;4.17;89.75;97811.75;5103748;28;20028;-70
2020/12/27 05:12:16;;;;;;;0.30;0.30;;;;;;;4.02;90.22;97814.69;5103589;28;20051;-69
2020/12/27 05:14:41;;;;;;;0.28;0.28;;;;;;;4.08;89.98;97799.97;5103823;28;20022;-69
2020/12/27 05:17:07;;;;;;;0.45;0.45;;;;;;;4.06;89.82;97804.28;5103578;28;20466;-69
2020/12/27 05:19:32;;;;;;;13.95;5.03;;;;;;;4.11;89.43;97793.91;5103835;28;20050;-69
2020/12/27 05:22:09;;;;;;;0.20;0.20;;;;;;;4.09;89.51;97803.38;5102094;28;20172;-69
2020/12/27 05:24:36;;;;;;;0.25;0.25;;;;;;;4.07;89.45;97792.31;5103553;28;20028;-69
2020/12/27 05:27:08;;;;;;;0.30;0.30;;;;;;;4.00;89.76;97790.75;5103588;28;20024;-69
2020/12/27 05:29:36;;;;;;;0.22;0.22;;;;;;;3.96;89.94;97784.88;5103657;28;20020;-69
2020/12/27 05:32:02;;;;;;;3.20;2.75;;;;;;;3.96;89.86;97787.44;5103360;28;20059;-69
2020/12/27 05:34:28;;;;;;;0.30;0.30;;;;;;;3.90;90.12;97787.59;5103617;28;20071;-69
2020/12/27 05:36:56;;;;;;;0.30;0.30;;;;;;;3.95;90.13;97784.03;5101774;28;20036;-69
2020/12/27 05:39:21;;;;;;;0.30;0.30;;;;;;;3.86;90.02;97773.97;5103577;28;20332;-69
2020/12/27 05:41:46;;;;;;;0.30;0.30;;;;;;;3.94;89.99;97791.75;5107172;28;20024;-69
2020/12/27 05:44:16;;;;;;;0.30;0.30;;;;;;;4.03;89.48;97780.41;5107583;28;20051;-70
2020/12/27 05:46:44;;;;;;;0.30;0.30;;;;;;;3.93;89.83;97770.38;5107526;28;20027;-69
2020/12/27 05:49:10;;;;;;;0.20;0.20;;;;;;;3.96;89.76;97767.72;5107523;28;20034;-72
2020/12/27 05:51:44;;;;;;;0.30;0.30;;;;;;;3.94;89.71;97766.94;5107167;28;20024;-69
2020/12/27 05:54:13;;;;;;;0.30;0.30;;;;;;;4.04;89.43;97764.97;5107519;28;20024;-69
2020/12/27 05:56:46;;;;;;;0.30;0.30;;;;;;;3.88;89.87;97761.97;5107297;28;20028;-69
2020/12/27 05:59:14;;;;;;;0.20;0.20;;;;;;;3.84;90.38;97745.78;5107304;28;20024;-68
2020/12/27 06:01:53;;;;;;;0.30;0.30;;;;;;;3.97;89.73;97753.19;5106850;28;20020;-68
2020/12/27 06:04:38;;;;;;;0.30;0.30;;;;;;;3.84;90.43;97760.31;5107080;28;20035;-69
2020/12/27 06:07:06;;;;;;;0.20;0.20;;;;;;;4.07;89.34;97753.81;5106959;28;20040;-69
2020/12/27 06:10:03;;;;;;;0.45;0.45;;;;;;;3.91;90.07;97731.06;5107094;28;20034;-69
2020/12/27 06:12:57;;;;;;;0.30;0.30;;;;;;;3.89;89.97;97737.09;5101942;28;20032;-69
2020/12/27 06:15:30;;;;;;;0.63;0.63;;;;;;;3.96;90.11;97730.97;5069223;28;20352;-69
2020/12/27 06:18:10;;;;;;;0.30;0.30;;;;;;;3.90;89.66;97739.63;5107151;28;20051;-69
2020/12/27 06:20:37;;;;;;;0.30;0.30;;;;;;;3.91;89.88;97719.97;5106751;28;20077;-69
2020/12/27 06:23:04;;;;;;;0.22;0.22;;;;;;;3.88;90.03;97730.31;5107016;28;20036;-69
2020/12/27 06:25:30;;;;;;;0.30;0.30;;;;;;;3.87;90.11;97728.59;5106944;28;20020;-69
2020/12/27 06:27:58;;;;;;;0.20;0.20;;;;;;;3.85;90.16;97715.78;5106643;28;20032;-69
2020/12/27 06:30:34;;;;;;;0.30;0.30;;;;;;;3.82;90.09;97732.13;5106701;28;20031;-68
2020/12/27 06:33:05;;;;;;;0.30;0.30;;;;;;;3.80;90.21;97713.34;5106609;28;20077;-69
2020/12/27 06:35:35;;;;;;;11.27;6.03;;;;;;;3.79;89.92;97708.25;5106309;28;20030;-68
2020/12/27 06:38:12;;;;;;;13.95;6.47;;;;;;;3.84;89.38;97725.25;5106715;28;20024;-68
2020/12/27 06:40:37;;;;;;;0.30;0.30;;;;;;;3.95;88.78;97714.72;5106536;28;20125;-69
2020/12/27 06:43:14;;;;;;;0.20;0.20;;;;;;;3.92;88.55;97704.50;5106478;28;20048;-69
2020/12/27 06:45:39;;;;;;;5.40;3.30;;;;;;;4.05;87.41;97683.66;5106659;28;20483;-70
2020/12/27 06:48:05;;;;;;;15.27;5.70;;;;;;;3.67;88.85;97676.91;5106593;28;20016;-69
2020/12/27 06:50:30;;;;;;;9.20;3.85;;;;;;;3.71;88.82;97696.47;5105666;28;20035;-68
2020/12/27 06:52:55;;;;;;;0.30;0.30;;;;;;;3.57;89.46;97683.97;5106446;28;20054;-69
2020/12/27 06:55:33;;;;;;;0.20;0.20;;;;;;;3.58;89.47;97685.66;5106317;28;20057;-69
2020/12/27 06:58:18;;;;;;;0.95;0.95;;;;;;;3.65;88.86;97675.22;5106413;28;20038;-69
2020/12/27 07:00:44;;;;;;;0.30;0.30;;;;;;;3.68;89.03;97688.00;5106142;28;20020;-70
2020/12/27 07:03:11;;;;;;;0.30;0.30;;;;;;;3.62;88.87;97662.47;5106266;28;20028;-68
2020/12/27 07:05:41;;;;;;;0.30;0.30;;;;;;;3.55;89.00;97682.31;5105562;28;20020;-68
2020/12/27 07:08:11;;;;;;;0.30;0.30;;;;;;;3.43;89.45;97662.94;5106224;28;20028;-68
2020/12/27 07:10:40;;;;;;;0.20;0.20;;;;;;;3.52;89.17;97675.53;5106043;28;20028;-68
2020/12/27 07:13:10;;;;;;;0.22;0.22;;;;;;;3.34;89.61;97674.22;5105988;28;20024;-69
2020/12/27 07:15:45;;;;;;;0.30;0.30;;;;;;;3.27;89.90;97688.94;5105871;28;20554;-69
2020/12/27 07:18:10;;;;;;;0.30;0.30;;;;;;;3.34;90.10;97669.09;5106093;28;20028;-70
2020/12/27 07:20:38;;;;;;;0.30;0.30;;;;;;;3.26;90.10;97651.34;5105670;28;20464;-69
2020/12/27 07:23:11;;;;;;;0.30;0.30;;;;;;;3.41;89.61;97665.53;5105945;28;20370;-69
2020/12/27 07:25:41;;;;;;;0.30;0.30;;;;;;;3.34;89.88;97658.84;5105917;28;20024;-69
2020/12/27 07:28:08;;;;;;;0.30;0.30;;;;;;;3.48;89.11;97643.16;5105864;28;20020;-69
2020/12/27 07:30:33;;;;;;;0.30;0.30;;;;;;;3.37;89.11;97653.66;5105429;28;20039;-69
2020/12/27 07:33:06;;;;;;;0.30;0.30;;;;;;;3.21;89.64;97627.53;5105407;28;20104;-69
2020/12/27 07:35:34;;;;;;;0.30;0.30;;;;;;;3.27;89.80;97631.69;5105291;28;20028;-70
2020/12/27 07:38:01;;;;;;;0.30;0.30;;;;;;;3.35;89.73;97642.59;5105433;28;20032;-70
2020/12/27 07:40:31;;;;;;;0.30;0.30;;;;;;;3.40;89.43;97627.94;5105370;28;20258;-70
2020/12/27 07:42:58;;;;;;;13.32;4.47;;;;;;;3.44;89.10;97628.69;5105256;28;20027;-71
2020/12/27 07:45:23;;;;;;;3.63;1.55;;;;;;;3.66;88.32;97641.84;5105396;28;20050;-71
2020/12/27 07:47:49;;;;;;;0.30;0.30;;;;;;;3.43;88.98;97616.75;5104998;28;20020;-70
2020/12/27 07:50:16;;;;;;;6.97;3.42;;;;;;;3.47;88.88;97628.63;5105438;28;20027;-70
2020/12/27 07:53:01;;;;;;;10.18;3.30;;;;;;;3.62;88.28;97617.16;5105073;28;20020;-70
2020/12/27 07:55:32;;;;;;;9.63;4.63;;;;;;;3.41;88.87;97610.81;5104618;28;20043;-70
2020/12/27 07:58:02;;;;;;;1.75;1.13;;;;;;;3.55;88.62;97584.81;5105042;28;20043;-73
2020/12/27 08:00:42;;;;;;;0.30;0.30;;;;;;;3.38;89.32;97598.94;5104959;28;20081;-71
2020/12/27 08:03:09;;;;;;;0.30;0.30;;;;;;;3.52;89.12;97611.41;5104207;28;20031;-73
2020/12/27 08:05:36;;;;;;;0.30;0.30;;;;;;;3.50;89.19;97604.63;5104735;28;20024;-70
2020/12/27 08:08:12;;;;;;;7.75;4.28;;;;;;;3.43;89.39;97586.84;5105053;28;20081;-69
2020/12/27 08:10:39;;;;;;;14.30;6.43;;;;;;;3.39;89.58;97590.34;5103522;28;20031;-69
2020/12/27 08:13:07;;;;;;;0.30;0.30;;;;;;;3.54;89.37;97588.28;5105041;28;20024;-69
2020/12/27 08:15:38;;;;;;;0.32;0.32;;;;;;;3.47;89.29;97593.56;5104981;28;20024;-69
2020/12/27 08:18:09;;;;;;;26.00;7.00;;;;;;;3.53;89.22;97572.03;5104791;28;20024;-71
2020/12/27 08:20:45;;;;;;;0.20;0.20;;;;;;;3.49;89.54;97590.09;5104257;28;20221;-69
2020/12/27 08:23:11;;;;;;;16.27;5.97;;;;;;;3.60;88.82;97536.81;5102990;28;20035;-69
2020/12/27 08:25:38;;;;;;;0.30;0.30;;;;;;;3.52;89.28;97549.84;5104605;28;20034;-71
2020/12/27 08:28:12;;;;;;;4.45;1.63;;;;;;;3.75;88.54;97566.38;5104596;28;20042;-73
2020/12/27 08:30:38;;;;;;;14.57;5.10;;;;;;;3.54;89.05;97550.66;5104347;28;20044;-71
2020/12/27 08:33:05;;;;;;;5.47;2.55;;;;;;;3.81;88.37;97562.78;5104640;28;20024;-72
2020/12/27 08:35:31;;;;;;;16.80;5.45;;;;;;;3.57;88.77;97545.44;5104226;28;20020;-72
2020/12/27 08:38:13;;;;;;;14.15;3.50;;;;;;;3.80;87.80;97563.69;5104278;28;20039;-72
2020/12/27 08:40:40;;;;;;;;;;;;;;;3.84;87.26;97547.28;5104852;28;20051;-72
2020/12/27 08:43:12;;;;;;;8.15;3.80;;;;;;;3.61;88.42;97555.63;5102950;28;19907;-73
2020/12/27 08:45:40;;;;;;;6.60;3.33;;;;;;;3.58;88.03;97544.53;5104392;28;20028;-73
2020/12/27 08:48:12;;;;;;;12.50;4.78;;;;;;;3.78;87.19;97519.25;5104300;28;20030;-72
2020/12/27 08:50:41;;;;;;;19.40;4.53;;;;;;;3.61;87.42;97519.69;5103830;28;20488;-72
2020/12/27 08:53:09;;;;;;;12.73;3.58;;;;;;;3.44;88.04;97514.13;5102664;28;20024;-73
2020/12/27 08:55:35;;;;;;;7.72;3.63;;;;;;;3.53;88.02;97515.59;5103932;28;20511;-72
2020/12/27 08:58:00;;;;;;;10.43;2.53;;;;;;;3.39;88.80;97521.09;5102581;28;20050;-73
2020/12/27 09:00:33;;;;;;;0.30;0.30;;;;;;;3.47;87.93;97526.88;5103953;28;20020;-73
2020/12/27 09:03:01;;;;;;;16.65;5.88;;;;;;;3.41;87.82;97523.63;5103681;28;20027;-72
2020/12/27 09:05:29;;;;;;;4.68;2.13;;;;;;;3.75;86.34;97534.72;5103939;28;20027;-72
2020/12/27 09:07:55;;;;;;;10.73;4.07;;;;;;;3.40;87.49;97509.13;5103798;28;20082;-72
2020/12/27 09:10:23;;;;;;;0.38;0.38;;;;;;;3.45;87.52;97510.69;5103737;28;20028;-72
2020/12/27 09:13:00;;;;;;;0.30;0.30;;;;;;;3.20;88.68;97490.81;5103828;28;20028;-72
2020/12/27 09:15:36;;;;;;;0.30;0.30;;;;;;;3.29;88.38;97510.22;5103587;28;20056;-72
2020/12/27 09:18:07;;;;;;;0.30;0.30;;;;;;;3.12;89.06;97499.56;5103734;28;20310;-73
2020/12/27 09:20:35;;;;;;;0.30;0.30;;;;;;;3.49;87.45;97482.38;5103694;28;20103;-73
2020/12/27 09:23:10;;;;;;;0.30;0.30;;;;;;;3.26;88.20;97471.84;5103659;28;20016;-71
2020/12/27 09:25:35;;;;;;;10.32;5.50;;;;;;;3.42;87.17;97474.84;5103779;28;20020;-72
2020/12/27 09:28:12;;;;;;;9.82;3.78;;;;;;;3.34;87.66;97493.00;5103709;28;20020;-71
2020/12/27 09:30:37;;;;;;;0.30;0.30;;;;;;;3.49;86.55;97492.63;5103860;28;20123;-69
2020/12/27 09:33:02;;;;;;;0.30;0.30;;;;;;;3.21;87.75;97478.84;5103754;28;20046;-72
2020/12/27 09:35:28;;;;;;;0.30;0.30;;;;;;;3.18;88.57;97476.34;5103504;28;20028;-72
2020/12/27 09:37:54;;;;;;;0.20;0.20;;;;;;;3.16;88.51;97491.78;5103381;28;20028;-72
2020/12/27 09:40:20;;;;;;;0.20;0.20;;;;;;;3.22;87.84;97476.22;5102414;28;20421;-71
2020/12/27 09:42:47;;;;;;;0.30;0.30;;;;;;;3.22;88.16;97496.75;5103617;28;20028;-71
2020/12/27 09:45:24;;;;;;;0.22;0.22;;;;;;;3.43;86.71;97474.00;5103717;28;20024;-74
2020/12/27 09:48:02;;;;;;;0.32;0.32;;;;;;;3.20;87.74;97436.13;5103432;28;20043;-71
2020/12/27 09:50:36;;;;;;;16.15;5.57;;;;;;;3.40;86.83;97476.63;5103416;28;20377;-70
2020/12/27 09:53:03;;;;;;;0.35;0.35;;;;;;;3.09;87.86;97450.06;5103333;28;20020;-71
2020/12/27 09:55:29;;;;;;;0.30;0.30;;;;;;;2.95;88.44;97445.31;5103654;28;20024;-70
2020/12/27 09:57:55;;;;;;;0.30;0.30;;;;;;;3.14;87.83;97455.06;5103654;28;20043;-72
2020/12/27 10:00:21;;;;;;;8.40;3.15;;;;;;;2.93;88.44;97434.25;5103622;28;20084;-73
2020/12/27 10:02:46;;;;;;;0.30;0.30;;;;;;;3.17;87.95;97446.44;5103333;28;20020;-71
2020/12/27 10:05:12;;;;;;;0.30;0.30;;;;;;;2.99;88.61;97443.47;5103405;28;20439;-71
2020/12/27 10:07:39;;;;;;;0.30;0.30;;;;;;;3.37;86.78;97422.84;5102864;28;20044;-71
2020/12/27 10:10:07;;;;;;;0.30;0.30;;;;;;;3.12;87.94;97451.69;5103337;28;20103;-71
2020/12/27 10:12:33;;;;;;;0.30;0.30;;;;;;;2.91;88.93;97443.69;5103121;28;20252;-71
2020/12/27 10:15:01;;;;;;;0.30;0.30;;;;;;;2.83;89.29;97460.97;5103366;28;20070;-71
2020/12/27 10:17:27;;;;;;;0.30;0.30;;;;;;;3.11;88.84;97452.59;5101731;28;20107;-70
2020/12/27 10:19:52;;;;;;;5.38;3.03;;;;;;;3.12;87.87;97420.94;5103180;28;20472;-69
2020/12/27 10:22:18;;;;;;;0.30;0.30;;;;;;;3.17;87.30;97419.09;5103101;28;20032;-69
2020/12/27 10:24:45;;;;;;;4.25;1.80;;;;;;;3.22;87.41;97435.22;5103268;28;20067;-69
2020/12/27 10:27:13;;;;;;;9.50;2.75;;;;;;;3.33;86.45;97428.94;5106292;28;20024;-71
2020/12/27 10:29:39;;;;;;;1.85;1.27;;;;;;;2.96;87.78;97433.31;5106649;28;20243;-74
2020/12/27 10:32:06;;;;;;;0.30;0.30;;;;;;;2.77;88.68;97426.09;5106462;28;20069;-72
2020/12/27 10:34:32;;;;;;;11.63;4.07;;;;;;;3.08;86.98;97456.06;5105283;28;20028;-72
2020/12/27 10:36:59;;;;;;;10.95;3.15;;;;;;;3.34;85.65;97435.75;5106240;28;20020;-74
2020/12/27 10:39:25;;;;;;;6.72;2.17;;;;;;;2.91;87.23;97425.75;5106623;28;20038;-71
2020/12/27 10:41:52;;;;;;;7.53;2.15;;;;;;;2.73;88.02;97412.50;5104916;28;20024;-72
2020/12/27 10:44:18;;;;;;;5.57;1.85;;;;;;;3.05;86.07;97425.38;5106675;28;20158;-72
2020/12/27 10:46:44;;;;;;;7.40;2.70;;;;;;;2.75;87.65;97411.66;5106635;28;20099;-72
2020/12/27 10:49:11;;;;;;;7.22;2.35;;;;;;;2.75;87.88;97420.16;5106390;28;20024;-71
2020/12/27 10:51:38;;;;;;;0.30;0.30;;;;;;;2.78;87.83;97421.81;5106019;28;20024;-71
2020/12/27 10:54:04;;;;;;;0.35;0.35;;;;;;;2.68;87.86;97391.31;5106744;28;20040;-75
2020/12/27 10:56:30;;;;;;;0.20;0.20;;;;;;;2.50;88.14;97440.41;5106423;28;20110;-71
2020/12/27 10:58:55;;;;;;;1.02;0.88;;;;;;;2.44;88.71;97370.56;5104922;28;20031;-73
2020/12/27 11:01:22;;;;;;;13.00;2.60;;;;;;;2.58;87.36;97392.41;5105903;28;20030;-73
2020/12/27 11:03:47;;;;;;;0.30;0.30;;;;;;;2.59;86.56;97407.72;5106234;28;20027;-71
2020/12/27 11:06:13;;;;;;;0.40;0.40;;;;;;;2.42;87.49;97404.75;5105838;28;20040;-74
2020/12/27 11:08:38;;;;;;;4.70;2.90;;;;;;;2.76;86.14;97405.63;5106028;28;20024;-73
2020/12/27 11:11:04;;;;;;;0.30;0.30;;;;;;;2.63;86.14;97395.69;5106045;28;20028;-71
2020/12/27 11:13:29;;;;;;;0.63;0.50;;;;;;;2.50;86.88;97378.94;5105849;28;20149;-71
2020/12/27 11:15:54;;;;;;;0.30;0.30;;;;;;;2.55;85.99;97392.47;5105905;28;20495;-72
2020/12/27 11:18:20;;;;;;;6.65;3.50;;;;;;;2.46;86.37;97399.50;5106161;28;20034;-71
2020/12/27 11:20:45;;;;;;;0.30;0.30;;;;;;;2.29;86.82;97387.09;5105784;28;20527;-71
2020/12/27 11:23:13;;;;;;;0.43;0.43;;;;;;;2.38;86.64;97392.91;5106016;28;20099;-71
2020/12/27 11:25:38;;;;;;;0.38;0.38;;;;;;;2.11;87.71;97383.25;5105873;28;20079;-71
2020/12/27 11:28:03;;;;;;;0.30;0.30;;;;;;;1.93;88.31;97395.56;5105739;28;20035;-71
2020/12/27 11:30:29;;;;;;;0.30;0.30;;;;;;;2.14;87.80;97406.22;5105824;28;20028;-72
2020/12/27 11:32:54;;;;;;;0.30;0.30;;;;;;;2.01;87.79;97386.91;5105585;28;20032;-72
2020/12/27 11:35:20;;;;;;;0.30;0.30;;;;;;;2.32;85.61;97404.09;5105717;28;20028;-71
2020/12/27 11:37:45;;;;;;;2.83;1.35;;;;;;;2.16;86.80;97376.31;5105313;28;20025;-71
2020/12/27 11:40:11;;;;;;;0.40;0.40;;;;;;;2.08;87.12;97391.00;5105583;28;20028;-71